createdAt,value
2023-03-11T00:03:43.912Z,95160.94
2023-03-11T00:07:08.048Z,95159.71
2023-03-11T00:09:35.905Z,95167.96
2023-03-11T00:12:23.838Z,95170.88
2023-03-11T00:15:33.755Z,95165.54
2023-03-11T00:18:25.312Z,95167.70
2023-03-11T00:20:52.397Z,95162.05
2023-03-11T00:23:20.137Z,95158.14
2023-03-11T00:25:48.927Z,95153.39
2023-03-11T00:28:17.821Z,95153.21
2023-03-11T00:30:46.730Z,95153.77
2023-03-11T00:33:15.729Z,95158.81
2023-03-11T00:35:45.356Z,95154.29
2023-03-11T00:38:17.287Z,95161.33
2023-03-11T00:40:46.849Z,95160.63
2023-03-11T00:43:15.737Z,95158.09
2023-03-11T00:45:44.095Z,95158.33
2023-03-11T00:48:13.473Z,95156.58
2023-03-11T00:50:41.100Z,95151.65
2023-03-11T00:53:08.116Z,95148.48
2023-03-11T00:55:36.211Z,95146.08
2023-03-11T00:58:06.462Z,95144.85
2023-03-11T01:00:34.705Z,95147.48
2023-03-11T01:03:02.495Z,95146.17
2023-03-11T01:05:32.552Z,95142.84
2023-03-11T01:08:00.257Z,95137.23
2023-03-11T01:10:28.992Z,95133.70
2023-03-11T01:12:56.355Z,95132.84
2023-03-11T01:15:33.658Z,95130.54
2023-03-11T01:18:02.249Z,95132.19
2023-03-11T01:20:29.773Z,95129.14
2023-03-11T01:23:02.091Z,95128.48
2023-03-11T01:25:29.650Z,95125.80
2023-03-11T01:27:57.522Z,95125.29
2023-03-11T01:30:25.971Z,95122.14
2023-03-11T01:32:54.863Z,95118.89
2023-03-11T01:35:25.009Z,95113.89
2023-03-11T01:37:53.954Z,95112.78
2023-03-11T01:40:27.619Z,95112.02
2023-03-11T01:42:55.122Z,95112.44
2023-03-11T01:45:41.690Z,95115.38
2023-03-11T01:48:11.223Z,95115.55
2023-03-11T01:50:47.081Z,95115.55
2023-03-11T01:53:17.244Z,95116.36
2023-03-11T01:55:45.987Z,95120.39
2023-03-11T01:58:19.456Z,95118.41
2023-03-11T02:03:40.298Z,95115.42
2023-03-11T02:06:11.825Z,95116.31
2023-03-11T02:08:41.680Z,95110.98
2023-03-11T02:11:12.541Z,95112.63
2023-03-11T02:13:41.292Z,95110.75
2023-03-11T02:16:09.200Z,95107.71
2023-03-11T02:18:38.702Z,95108.45
2023-03-11T02:21:31.124Z,95110.27
2023-03-11T02:24:17.177Z,95111.89
2023-03-11T02:26:56.507Z,95110.56
2023-03-11T02:29:26.046Z,95113.51
2023-03-11T02:31:53.770Z,95118.05
2023-03-11T02:34:33.788Z,95111.55
2023-03-11T02:37:01.995Z,95121.29
2023-03-11T02:39:39.647Z,95113.32
2023-03-11T02:42:18.664Z,95113.85
2023-03-11T02:44:49.809Z,95115.90
2023-03-11T02:47:18.527Z,95116.52
2023-03-11T02:49:45.492Z,95120.56
2023-03-11T02:52:13.494Z,95120.46
2023-03-11T02:54:40.562Z,95122.21
2023-03-11T02:57:08.463Z,95124.23
2023-03-11T02:59:36.345Z,95124.36
2023-03-11T03:02:04.780Z,95121.90
2023-03-11T03:04:31.868Z,95124.94
2023-03-11T03:06:59.307Z,95125.90
2023-03-11T03:09:26.468Z,95127.19
2023-03-11T03:11:53.789Z,95122.10
2023-03-11T03:14:21.406Z,95123.58
2023-03-11T03:16:49.155Z,95118.77
2023-03-11T03:19:19.652Z,95121.48
2023-03-11T03:21:46.816Z,95123.44
2023-03-11T03:24:14.183Z,95124.70
2023-03-11T03:26:41.313Z,95123.76
2023-03-11T03:29:08.978Z,95119.96
2023-03-11T03:31:36.315Z,95124.02
2023-03-11T03:34:03.420Z,95124.23
2023-03-11T03:36:30.742Z,95132.21
2023-03-11T03:38:59.831Z,95134.73
2023-03-11T03:41:29.204Z,95134.16
2023-03-11T03:43:56.640Z,95134.17
2023-03-11T03:46:24.721Z,95132.64
2023-03-11T03:48:51.806Z,95134.79
2023-03-11T03:51:19.820Z,95135.27
2023-03-11T03:53:47.057Z,95135.79
2023-03-11T03:56:16.905Z,95132.73
2023-03-11T03:58:45.483Z,95131.02
2023-03-11T04:01:13.736Z,95130.16
2023-03-11T04:03:42.045Z,95131.38
2023-03-11T04:06:16.462Z,95129.92
2023-03-11T04:08:43.918Z,95133.48
2023-03-11T04:11:11.493Z,95135.13
2023-03-11T04:13:38.555Z,95134.65
2023-03-11T04:16:07.471Z,95140.79
2023-03-11T04:18:35.627Z,95143.80
2023-03-11T04:21:07.260Z,95146.26
2023-03-11T04:23:34.872Z,95148.92
2023-03-11T04:26:02.203Z,95146.28
2023-03-11T04:28:29.582Z,95142.52
2023-03-11T04:30:56.864Z,95137.05
2023-03-11T04:33:23.946Z,95128.65
2023-03-11T04:35:51.103Z,95130.48
2023-03-11T04:38:18.310Z,95131.07
2023-03-11T04:40:45.298Z,95128.27
2023-03-11T04:43:12.811Z,95131.27
2023-03-11T04:45:41.278Z,95135.17
2023-03-11T04:48:08.801Z,95132.15
2023-03-11T04:50:35.865Z,95136.27
2023-03-11T04:53:03.251Z,95134.42
2023-03-11T04:55:30.278Z,95138.14
2023-03-11T04:57:57.812Z,95142.96
2023-03-11T05:00:25.425Z,95150.96
2023-03-11T05:02:52.894Z,95150.08
2023-03-11T05:05:20.944Z,95152.08
2023-03-11T05:07:48.927Z,95155.01
2023-03-11T05:10:22.816Z,95154.86
2023-03-11T05:12:51.076Z,95155.02
2023-03-11T05:15:19.372Z,95154.49
2023-03-11T05:17:47.083Z,95156.85
2023-03-11T05:20:15.711Z,95156.11
2023-03-11T05:22:43.550Z,95156.06
2023-03-11T05:25:11.028Z,95158.24
2023-03-11T05:27:38.699Z,95159.11
2023-03-11T05:30:06.316Z,95160.53
2023-03-11T05:32:34.944Z,95163.46
2023-03-11T05:35:02.643Z,95165.46
2023-03-11T05:37:32.614Z,95167.18
2023-03-11T05:39:59.799Z,95166.95
2023-03-11T05:42:27.138Z,95167.88
2023-03-11T05:44:54.157Z,95163.98
2023-03-11T05:47:21.796Z,95169.27
2023-03-11T05:49:49.362Z,95174.00
2023-03-11T05:52:17.247Z,95176.27
2023-03-11T05:54:44.681Z,95177.33
2023-03-11T05:57:12.137Z,95172.92
2023-03-11T05:59:39.265Z,95178.04
2023-03-11T06:02:06.586Z,95178.53
2023-03-11T06:04:34.515Z,95181.57
2023-03-11T06:07:01.739Z,95189.94
2023-03-11T06:09:29.438Z,95208.84
2023-03-11T06:11:56.662Z,95214.57
2023-03-11T06:14:24.076Z,95223.33
2023-03-11T06:16:51.429Z,95225.31
2023-03-11T06:19:20.189Z,95238.02
2023-03-11T06:21:47.231Z,95247.36
2023-03-11T06:24:14.504Z,95257.60
2023-03-11T06:26:41.797Z,95259.80
2023-03-11T06:29:14.411Z,95272.57
2023-03-11T06:31:42.908Z,95272.31
2023-03-11T06:34:11.566Z,95277.48
2023-03-11T06:36:38.681Z,95279.84
2023-03-11T06:39:05.933Z,95289.14
2023-03-11T06:41:36.185Z,95294.11
2023-03-11T06:44:04.550Z,95300.60
2023-03-11T06:46:33.407Z,95306.69
2023-03-11T06:49:00.538Z,95306.23
2023-03-11T06:51:27.825Z,95316.12
2023-03-11T06:53:55.405Z,95323.70
2023-03-11T06:56:23.797Z,95320.84
2023-03-11T06:58:52.223Z,95323.91
2023-03-11T07:01:25.548Z,95320.88
2023-03-11T07:03:53.493Z,95325.52
2023-03-11T07:06:24.400Z,95331.98
2023-03-11T07:08:53.129Z,95336.19
2023-03-11T07:11:26.075Z,95339.20
2023-03-11T07:13:54.875Z,95341.42
2023-03-11T07:16:24.939Z,95341.45
2023-03-11T07:18:53.054Z,95340.39
2023-03-11T07:21:23.150Z,95346.11
2023-03-11T07:23:57.875Z,95344.36
2023-03-11T07:26:26.317Z,95352.99
2023-03-11T07:28:55.717Z,95356.52
2023-03-11T07:31:26.157Z,95361.73
2023-03-11T07:33:55.119Z,95361.64
2023-03-11T07:36:24.805Z,95364.63
2023-03-11T07:38:59.157Z,95365.73
2023-03-11T07:41:27.399Z,95368.00
2023-03-11T07:43:56.654Z,95364.43
2023-03-11T07:46:25.860Z,95365.23
2023-03-11T07:48:53.564Z,95368.70
2023-03-11T07:51:29.685Z,95375.16
2023-03-11T07:53:58.934Z,95376.10
2023-03-11T07:56:28.543Z,95379.85
2023-03-11T07:58:55.786Z,95381.11
2023-03-11T08:01:25.872Z,95382.06
2023-03-11T08:03:59.236Z,95388.28
2023-03-11T08:06:31.859Z,95396.45
2023-03-11T08:09:01.349Z,95393.59
2023-03-11T08:11:32.745Z,95392.42
2023-03-11T08:14:00.119Z,95399.27
2023-03-11T08:16:27.723Z,95400.12
2023-03-11T08:18:55.148Z,95402.67
2023-03-11T08:21:25.493Z,95404.30
2023-03-11T08:23:53.122Z,95406.14
2023-03-11T08:26:22.562Z,95404.44
2023-03-11T08:28:50.675Z,95411.89
2023-03-11T08:31:20.216Z,95419.38
2023-03-11T08:33:51.912Z,95417.27
2023-03-11T08:36:19.976Z,95422.06
2023-03-11T08:38:47.954Z,95421.52
2023-03-11T08:41:15.210Z,95426.95
2023-03-11T08:43:43.480Z,95423.20
2023-03-11T08:46:38.992Z,95423.01
2023-03-11T08:49:06.769Z,95431.97
2023-03-11T08:51:35.131Z,95432.20
2023-03-11T08:54:03.368Z,95437.38
2023-03-11T08:56:31.670Z,95443.95
2023-03-11T08:58:59.040Z,95441.45
2023-03-11T09:01:26.711Z,95445.92
2023-03-11T09:03:53.678Z,95453.91
2023-03-11T09:06:21.380Z,95458.05
2023-03-11T09:08:50.053Z,95462.35
2023-03-11T09:11:18.572Z,95469.42
2023-03-11T09:13:46.441Z,95471.37
2023-03-11T09:16:16.545Z,95476.46
2023-03-11T09:18:44.216Z,95478.87
2023-03-11T09:21:11.552Z,95481.05
2023-03-11T09:23:41.588Z,95488.73
2023-03-11T09:26:09.671Z,95487.73
2023-03-11T09:28:36.788Z,95488.34
2023-03-11T09:31:04.526Z,95496.20
2023-03-11T09:33:31.845Z,95495.13
2023-03-11T09:35:59.525Z,95496.27
2023-03-11T09:38:27.136Z,95497.05
2023-03-11T09:41:07.891Z,95496.18
2023-03-11T09:43:45.025Z,95499.40
2023-03-11T09:46:25.569Z,95502.45
2023-03-11T09:49:01.937Z,95503.36
2023-03-11T09:51:33.300Z,95504.08
2023-03-11T09:54:05.626Z,95508.48
2023-03-11T09:56:35.697Z,95512.59
2023-03-11T09:59:07.830Z,95515.73
2023-03-11T10:01:37.999Z,95518.73
2023-03-11T10:04:20.534Z,95524.09
2023-03-11T10:06:48.327Z,95524.17
2023-03-11T10:09:39.738Z,95524.77
2023-03-11T10:12:46.139Z,95528.61
2023-03-11T10:15:28.541Z,95536.14
2023-03-11T10:18:05.717Z,95541.92
2023-03-11T10:20:40.963Z,95540.05
2023-03-11T10:23:27.841Z,95545.84
2023-03-11T10:26:13.562Z,95552.34
2023-03-11T10:28:49.253Z,95553.98
2023-03-11T10:31:20.923Z,95555.75
2023-03-11T10:33:55.223Z,95562.29
2023-03-11T10:36:27.670Z,95570.59
2023-03-11T10:38:56.300Z,95579.90
2023-03-11T10:41:36.710Z,95582.98
2023-03-11T10:44:17.239Z,95584.57
2023-03-11T10:46:44.498Z,95587.79
2023-03-11T10:49:16.388Z,95595.09
2023-03-11T10:51:48.716Z,95603.52
2023-03-11T10:54:33.144Z,95602.09
2023-03-11T10:57:06.841Z,95611.39
2023-03-11T10:59:46.638Z,95610.79
2023-03-11T11:02:31.148Z,95619.24
2023-03-11T11:05:29.169Z,95622.89
2023-03-11T11:08:08.214Z,95628.91
2023-03-11T11:10:41.378Z,95638.15
2023-03-11T11:13:08.516Z,95641.91
2023-03-11T11:15:40.409Z,95647.57
2023-03-11T11:18:19.072Z,95650.67
2023-03-11T11:21:02.976Z,95657.52
2023-03-11T11:23:35.235Z,95666.08
2023-03-11T11:26:06.356Z,95671.61
2023-03-11T11:28:35.128Z,95676.89
2023-03-11T11:31:06.018Z,95676.52
2023-03-11T11:33:40.299Z,95684.11
2023-03-11T11:36:16.889Z,95699.45
2023-03-11T11:38:44.672Z,95714.56
2023-03-11T11:41:21.702Z,95721.43
2023-03-11T11:43:55.470Z,95732.83
2023-03-11T11:46:37.786Z,95739.98
2023-03-11T11:49:22.392Z,95746.69
2023-03-11T11:52:20.102Z,95752.85
2023-03-11T11:54:55.651Z,95759.66
2023-03-11T11:57:24.329Z,95770.40
2023-03-11T11:59:51.869Z,95780.61
2023-03-11T12:02:22.378Z,95783.83
2023-03-11T12:05:02.284Z,95795.63
2023-03-11T12:08:05.263Z,95801.38
2023-03-11T12:10:45.850Z,95798.92
2023-03-11T12:13:30.131Z,95812.55
2023-03-11T12:15:57.869Z,95820.50
2023-03-11T12:18:35.475Z,95831.05
2023-03-11T12:21:12.846Z,95830.88
2023-03-11T12:23:59.232Z,95841.59
2023-03-11T12:26:34.556Z,95844.76
2023-03-11T12:29:24.672Z,95857.34
2023-03-11T12:31:54.273Z,95863.20
2023-03-11T12:34:25.946Z,95869.23
2023-03-11T12:36:55.296Z,95875.31
2023-03-11T12:39:29.140Z,95882.86
2023-03-11T12:42:25.500Z,95885.93
2023-03-11T12:44:54.150Z,95888.52
2023-03-11T12:47:29.907Z,95908.58
2023-03-11T12:50:35.643Z,95913.94
2023-03-11T12:53:17.521Z,95926.15
2023-03-11T12:56:04.127Z,95932.53
2023-03-11T12:59:06.092Z,95932.98
2023-03-11T13:01:42.143Z,95944.17
2023-03-11T13:04:37.574Z,95950.30
2023-03-11T13:07:32.438Z,95957.98
2023-03-11T13:10:13.381Z,95961.48
2023-03-11T13:12:52.500Z,95972.20
2023-03-11T13:15:22.842Z,95975.09
2023-03-11T13:18:04.314Z,95985.13
2023-03-11T13:20:43.721Z,95986.81
2023-03-11T13:23:33.842Z,95996.48
2023-03-11T13:26:19.838Z,96010.38
2023-03-11T13:29:04.273Z,96017.77
2023-03-11T13:31:35.601Z,96028.44
2023-03-11T13:34:16.287Z,96036.61
2023-03-11T13:37:06.299Z,96044.61
2023-03-11T13:40:14.629Z,96054.30
2023-03-11T13:43:21.910Z,96067.95
2023-03-11T13:46:15.459Z,96072.56
2023-03-11T13:48:50.001Z,96087.39
2023-03-11T13:51:24.956Z,96092.90
2023-03-11T13:54:03.496Z,96095.31
2023-03-11T13:56:39.954Z,96110.49
2023-03-11T13:59:23.310Z,96117.98
2023-03-11T14:01:52.521Z,96120.23
2023-03-11T14:04:37.937Z,96122.66
2023-03-11T14:07:29.037Z,96128.20
2023-03-11T14:10:19.306Z,96129.59
2023-03-11T14:12:47.183Z,96140.10
2023-03-11T14:15:20.835Z,96148.98
2023-03-11T14:17:48.918Z,96156.28
2023-03-11T14:20:31.009Z,96160.34
2023-03-11T14:22:58.242Z,96171.49
2023-03-11T14:25:37.142Z,96177.09
2023-03-11T14:28:06.204Z,96182.23
2023-03-11T14:30:35.235Z,96194.63
2023-03-11T14:33:24.602Z,96193.87
2023-03-11T14:36:05.042Z,96201.22
2023-03-11T14:38:33.564Z,96202.76
2023-03-11T14:41:03.791Z,96211.31
2023-03-11T14:43:35.722Z,96214.04
2023-03-11T14:46:04.392Z,96225.83
2023-03-11T14:48:44.819Z,96232.54
2023-03-11T14:51:22.643Z,96241.78
2023-03-11T14:54:31.322Z,96245.54
2023-03-11T14:57:18.840Z,96250.47
2023-03-11T15:00:13.379Z,96254.23
2023-03-11T15:02:47.721Z,96259.25
2023-03-11T15:05:27.845Z,96261.55
2023-03-11T15:08:01.195Z,96265.23
2023-03-11T15:10:28.846Z,96270.33
2023-03-11T15:13:25.547Z,96275.63
2023-03-11T15:16:01.145Z,96280.55
2023-03-11T15:18:37.665Z,96284.73
2023-03-11T15:21:14.359Z,96286.35
2023-03-11T15:23:49.458Z,96295.37
2023-03-11T15:26:26.453Z,96303.26
2023-03-11T15:29:01.920Z,96312.44
2023-03-11T15:31:37.518Z,96308.17
2023-03-11T15:34:22.257Z,96315.32
2023-03-11T15:36:49.466Z,96317.53
2023-03-11T15:39:25.666Z,96319.52
2023-03-11T15:41:59.140Z,96326.10
2023-03-11T15:44:33.738Z,96330.61
2023-03-11T15:47:01.529Z,96336.10
2023-03-11T15:49:30.021Z,96337.11
2023-03-11T15:52:03.837Z,96342.21
2023-03-11T15:54:30.868Z,96346.64
2023-03-11T15:57:01.621Z,96353.30
2023-03-11T15:59:31.797Z,96354.79
2023-03-11T16:02:00.145Z,96360.64
2023-03-11T16:04:27.700Z,96370.08
2023-03-11T16:07:07.374Z,96372.66
2023-03-11T16:09:35.845Z,96382.11
2023-03-11T16:12:10.370Z,96387.46
2023-03-11T16:14:37.759Z,96392.30
2023-03-11T16:17:04.842Z,96395.42
2023-03-11T16:19:33.219Z,96401.22
2023-03-11T16:22:00.935Z,96402.58
2023-03-11T16:24:28.265Z,96408.13
2023-03-11T16:26:55.361Z,96418.57
2023-03-11T16:29:24.059Z,96423.87
2023-03-11T16:31:55.312Z,96425.30
2023-03-11T16:34:22.662Z,96428.43
2023-03-11T16:36:50.250Z,96433.70
2023-03-11T16:39:17.143Z,96438.48
2023-03-11T16:41:45.709Z,96449.79
2023-03-11T16:44:12.956Z,96454.61
2023-03-11T16:46:39.939Z,96457.75
2023-03-11T16:49:07.366Z,96465.83
2023-03-11T16:51:34.650Z,96470.52
2023-03-11T16:54:02.837Z,96480.08
2023-03-11T16:56:30.534Z,96485.49
2023-03-11T16:58:57.520Z,96489.65
2023-03-11T17:01:24.917Z,96498.77
2023-03-11T17:03:52.687Z,96504.69
2023-03-11T17:06:20.827Z,96513.17
2023-03-11T17:08:50.124Z,96527.33
2023-03-11T17:11:23.399Z,96541.89
2023-03-11T17:13:51.408Z,96551.73
2023-03-11T17:16:18.691Z,96558.92
2023-03-11T17:18:46.453Z,96565.92
2023-03-11T17:21:15.909Z,96567.49
2023-03-11T17:23:43.805Z,96570.27
2023-03-11T17:26:17.619Z,96571.08
2023-03-11T17:28:44.688Z,96575.55
2023-03-11T17:31:13.929Z,96582.58
2023-03-11T17:33:42.522Z,96587.75
2023-03-11T17:36:14.459Z,96594.71
2023-03-11T17:38:41.979Z,96595.17
2023-03-11T17:41:18.785Z,96604.91
2023-03-11T17:43:46.756Z,96609.98
2023-03-11T17:46:17.142Z,96619.52
2023-03-11T17:48:48.306Z,96624.54
2023-03-11T17:51:18.190Z,96629.22
2023-03-11T17:53:49.583Z,96634.79
2023-03-11T17:56:20.698Z,96642.89
2023-03-11T17:58:49.255Z,96641.63
2023-03-11T18:01:23.202Z,96642.91
2023-03-11T18:03:50.973Z,96651.04
2023-03-11T18:06:19.905Z,96648.94
2023-03-11T18:08:47.134Z,96653.76
2023-03-11T18:11:19.036Z,96661.73
2023-03-11T18:13:46.784Z,96663.24
2023-03-11T18:16:17.490Z,96664.83
2023-03-11T18:18:45.192Z,96669.85
2023-03-11T18:21:16.201Z,96677.73
2023-03-11T18:23:43.869Z,96677.54
2023-03-11T18:26:13.774Z,96686.42
2023-03-11T18:28:42.154Z,96694.65
2023-03-11T18:31:15.466Z,96696.16
2023-03-11T18:33:47.109Z,96704.91
2023-03-11T18:36:16.988Z,96711.22
2023-03-11T18:38:44.317Z,96714.58
2023-03-11T18:41:11.655Z,96719.96
2023-03-11T18:43:39.895Z,96729.48
2023-03-11T18:46:12.497Z,96731.85
2023-03-11T18:48:40.327Z,96734.36
2023-03-11T18:51:08.944Z,96736.30
2023-03-11T18:53:37.216Z,96741.95
2023-03-11T18:56:07.029Z,96744.34
2023-03-11T18:58:35.118Z,96752.02
2023-03-11T19:01:12.934Z,96757.61
2023-03-11T19:03:42.236Z,96761.71
2023-03-11T19:06:10.768Z,96766.40
2023-03-11T19:08:38.233Z,96770.73
2023-03-11T19:11:10.829Z,96774.38
2023-03-11T19:13:47.671Z,96774.13
2023-03-11T19:16:17.653Z,96777.55
2023-03-11T19:18:44.959Z,96785.80
2023-03-11T19:21:14.543Z,96785.81
2023-03-11T19:23:42.184Z,96789.05
2023-03-11T19:26:09.788Z,96796.14
2023-03-11T19:28:37.487Z,96795.98
2023-03-11T19:31:05.762Z,96799.20
2023-03-11T19:33:35.164Z,96803.09
2023-03-11T19:36:04.697Z,96809.33
2023-03-11T19:38:32.354Z,96815.27
2023-03-11T19:41:05.574Z,96818.36
2023-03-11T19:43:33.745Z,96822.25
2023-03-11T19:46:00.836Z,96831.91
2023-03-11T19:48:28.380Z,96832.23
2023-03-11T19:50:56.084Z,96834.31
2023-03-11T19:53:23.802Z,96842.86
2023-03-11T19:55:53.608Z,96845.97
2023-03-11T19:58:22.435Z,96843.92
2023-03-11T20:00:49.744Z,96846.81
2023-03-11T20:03:17.262Z,96852.14
2023-03-11T20:05:46.877Z,96854.08
2023-03-11T20:08:17.803Z,96856.30
2023-03-11T20:10:47.784Z,96859.83
2023-03-11T20:13:17.273Z,96863.35
2023-03-11T20:15:44.718Z,96862.61
2023-03-11T20:18:12.429Z,96863.36
2023-03-11T20:20:43.464Z,96861.42
2023-03-11T20:23:12.036Z,96863.86
2023-03-11T20:25:41.858Z,96869.14
2023-03-11T20:28:09.986Z,96868.05
2023-03-11T20:30:39.256Z,96869.11
2023-03-11T20:33:07.685Z,96869.34
2023-03-11T20:35:35.652Z,96871.53
2023-03-11T20:38:03.402Z,96868.58
2023-03-11T20:40:31.056Z,96868.73
2023-03-11T20:42:58.411Z,96867.98
2023-03-11T20:45:25.498Z,96873.73
2023-03-11T20:47:54.556Z,96873.15
2023-03-11T20:50:22.793Z,96870.46
2023-03-11T20:52:51.002Z,96877.41
2023-03-11T20:55:18.980Z,96877.55
2023-03-11T20:57:46.942Z,96880.98
2023-03-11T21:00:14.554Z,96886.07
2023-03-11T21:02:43.444Z,96889.05
2023-03-11T21:05:14.069Z,96895.10
2023-03-11T21:07:41.940Z,96898.30
2023-03-11T21:10:12.441Z,96900.33
2023-03-11T21:12:39.721Z,96903.75
2023-03-11T21:15:08.863Z,96903.77
2023-03-11T21:17:37.647Z,96909.58
2023-03-11T21:20:06.574Z,96907.60
2023-03-11T21:22:34.331Z,96908.51
2023-03-11T21:25:02.830Z,96912.50
2023-03-11T21:27:30.199Z,96913.40
2023-03-11T21:29:59.391Z,96910.23
2023-03-11T21:32:28.749Z,96912.89
2023-03-11T21:35:00.751Z,96915.00
2023-03-11T21:37:30.413Z,96916.48
2023-03-11T21:39:57.528Z,96917.23
2023-03-11T21:42:28.587Z,96916.61
2023-03-11T21:44:55.932Z,96918.01
2023-03-11T21:47:23.333Z,96921.59
2023-03-11T21:49:51.153Z,96923.95
2023-03-11T21:52:18.481Z,96926.31
2023-03-11T21:54:45.749Z,96924.71
2023-03-11T21:57:12.880Z,96932.48
2023-03-11T21:59:39.964Z,96934.88
2023-03-11T22:02:09.629Z,96937.71
2023-03-11T22:04:37.836Z,96943.25
2023-03-11T22:07:05.445Z,96946.30
2023-03-11T22:09:32.991Z,96946.77
2023-03-11T22:12:01.001Z,96947.44
2023-03-11T22:14:28.531Z,96949.73
2023-03-11T22:16:56.515Z,96951.33
2023-03-11T22:19:24.267Z,96952.80
2023-03-11T22:21:51.279Z,96958.84
2023-03-11T22:24:18.430Z,96957.67
2023-03-11T22:26:45.880Z,96958.35
2023-03-11T22:29:13.811Z,96962.25
2023-03-11T22:31:41.182Z,96963.24
2023-03-11T22:34:08.496Z,96964.17
2023-03-11T22:36:37.446Z,96965.73
2023-03-11T22:39:05.240Z,96968.09
2023-03-11T22:41:33.094Z,96973.75
2023-03-11T22:44:00.761Z,96974.59
2023-03-11T22:46:28.002Z,96972.61
2023-03-11T22:48:56.268Z,96976.91
2023-03-11T22:51:23.525Z,96973.17
2023-03-11T22:53:51.108Z,96977.66
2023-03-11T22:56:19.221Z,96974.64
2023-03-11T22:58:46.900Z,96970.35
2023-03-11T23:01:14.255Z,96973.38
2023-03-11T23:03:43.456Z,96977.09
2023-03-11T23:06:14.670Z,96980.12
2023-03-11T23:08:42.218Z,96979.61
2023-03-11T23:11:12.073Z,96978.27
2023-03-11T23:13:41.838Z,96981.89
2023-03-11T23:16:14.872Z,96985.68
2023-03-11T23:18:43.859Z,96989.33
2023-03-11T23:21:25.512Z,96986.98
2023-03-11T23:23:53.620Z,96987.20
2023-03-11T23:26:22.532Z,96985.68
2023-03-11T23:28:54.208Z,96979.79
2023-03-11T23:31:24.412Z,96985.89
2023-03-11T23:33:52.274Z,96989.09
2023-03-11T23:36:22.206Z,96992.90
2023-03-11T23:38:51.386Z,96992.83
2023-03-11T23:41:21.121Z,96995.91
2023-03-11T23:43:48.257Z,96995.77
2023-03-11T23:46:16.482Z,97002.04
2023-03-11T23:48:43.624Z,97005.73
2023-03-11T23:51:14.025Z,97009.30
2023-03-11T23:53:41.883Z,97012.89
2023-03-11T23:56:19.016Z,97019.34
2023-03-11T23:58:47.598Z,97017.22
